createdAt,value
2019-03-11T00:01:40.238Z,66.59
2019-03-11T00:04:12.359Z,67.08
2019-03-11T00:06:44.320Z,66.60
2019-03-11T00:09:15.550Z,66.41
2019-03-11T00:11:48.201Z,67.23
2019-03-11T00:14:19.488Z,66.90
2019-03-11T00:16:50.686Z,66.47
2019-03-11T00:19:22.176Z,65.77
2019-03-11T00:21:53.389Z,65.65
2019-03-11T00:24:24.611Z,66.18
2019-03-11T00:26:55.868Z,65.78
2019-03-11T00:29:27.134Z,65.82
2019-03-11T00:31:58.301Z,65.67
2019-03-11T00:34:29.594Z,65.25
2019-03-11T00:37:00.856Z,64.76
2019-03-11T00:39:32.288Z,64.16
2019-03-11T00:42:03.563Z,64.82
2019-03-11T00:44:34.775Z,64.93
2019-03-11T00:47:06.045Z,64.26
2019-03-11T00:49:37.319Z,64.31
2019-03-11T00:52:08.528Z,64.21
2019-03-11T00:54:39.738Z,64.27
2019-03-11T00:57:11.973Z,64.55
2019-03-11T00:59:43.125Z,63.73
2019-03-11T01:02:14.322Z,64.54
2019-03-11T01:04:45.499Z,65.05
2019-03-11T01:07:16.746Z,65.37
2019-03-11T01:09:47.967Z,64.81
2019-03-11T01:12:19.119Z,65.15
2019-03-11T01:14:50.435Z,64.66
2019-03-11T01:17:21.654Z,64.95
2019-03-11T01:19:52.998Z,65.50
2019-03-11T01:22:24.204Z,64.93
2019-03-11T01:24:55.412Z,64.21
2019-03-11T01:27:26.731Z,64.79
2019-03-11T01:29:57.922Z,64.67
2019-03-11T01:32:29.122Z,64.91
2019-03-11T01:35:00.366Z,65.35
2019-03-11T01:37:31.749Z,64.99
2019-03-11T01:40:03.163Z,64.78
2019-03-11T01:42:34.377Z,64.60
2019-03-11T01:45:10.788Z,64.67
2019-03-11T01:47:42.020Z,64.77
2019-03-11T01:50:14.431Z,64.37
2019-03-11T01:52:45.740Z,63.93
2019-03-11T01:55:17.017Z,63.79
2019-03-11T01:57:48.317Z,63.38
2019-03-11T02:00:19.512Z,63.76
2019-03-11T02:02:50.808Z,62.49
2019-03-11T02:05:21.970Z,63.04
2019-03-11T02:07:53.330Z,63.12
2019-03-11T02:10:24.565Z,62.57
2019-03-11T02:12:55.756Z,62.58
2019-03-11T02:15:26.970Z,61.46
2019-03-11T02:17:58.191Z,62.23
2019-03-11T02:20:29.445Z,61.17
2019-03-11T02:23:00.643Z,61.76
2019-03-11T02:25:31.929Z,61.38
2019-03-11T02:28:03.221Z,62.12
2019-03-11T02:30:34.510Z,60.45
2019-03-11T02:33:05.695Z,60.95
2019-03-11T02:35:36.852Z,58.90
2019-03-11T02:38:08.073Z,59.01
2019-03-11T02:40:39.398Z,59.88
2019-03-11T02:43:11.398Z,58.15
2019-03-11T02:45:42.607Z,57.74
2019-03-11T02:48:13.795Z,57.62
2019-03-11T02:50:44.932Z,56.97
2019-03-11T02:53:16.088Z,57.30
2019-03-11T02:55:50.763Z,56.94
2019-03-11T02:58:20.257Z,58.13
2019-03-11T03:00:53.121Z,57.66
2019-03-11T03:03:43.364Z,58.59
2019-03-11T03:06:16.022Z,57.97
2019-03-11T03:08:47.241Z,57.95
2019-03-11T03:11:18.462Z,57.53
2019-03-11T03:13:49.910Z,58.01
2019-03-11T03:16:21.096Z,57.04
2019-03-11T03:18:52.670Z,57.20
2019-03-11T03:21:23.939Z,57.42
2019-03-11T03:23:55.331Z,59.74
2019-03-11T03:26:26.487Z,58.14
2019-03-11T03:28:57.677Z,58.68
2019-03-11T03:31:28.849Z,59.18
2019-03-11T03:34:00.074Z,58.52
2019-03-11T03:36:31.735Z,57.61
2019-03-11T03:39:02.916Z,57.80
2019-03-11T03:41:35.098Z,58.96
2019-03-11T03:44:06.342Z,58.12
2019-03-11T03:46:37.592Z,58.18
2019-03-11T03:49:08.832Z,58.21
2019-03-11T03:51:40.023Z,58.80
2019-03-11T03:54:11.203Z,59.30
2019-03-11T03:56:42.501Z,58.81
2019-03-11T03:59:13.702Z,59.32
2019-03-11T04:01:44.911Z,59.92
2019-03-11T04:04:16.153Z,60.10
2019-03-11T04:06:47.396Z,60.52
2019-03-11T04:09:18.630Z,60.72
2019-03-11T04:11:49.923Z,60.32
2019-03-11T04:14:21.094Z,59.74
2019-03-11T04:16:52.370Z,59.99
2019-03-11T04:19:23.555Z,59.13
2019-03-11T04:21:54.808Z,60.14
2019-03-11T04:24:26.082Z,58.55
2019-03-11T04:26:57.294Z,57.94
2019-03-11T04:29:28.559Z,58.55
2019-03-11T04:31:59.772Z,57.71
2019-03-11T04:34:31.001Z,59.95
2019-03-11T04:37:02.802Z,58.98
2019-03-11T04:39:34.021Z,58.71
2019-03-11T04:42:05.353Z,59.29
2019-03-11T04:44:36.696Z,59.31
2019-03-11T04:47:07.857Z,59.32
2019-03-11T04:49:39.390Z,58.14
2019-03-11T04:52:10.595Z,58.31
2019-03-11T04:54:41.832Z,58.82
2019-03-11T04:57:12.917Z,59.79
2019-03-11T04:59:44.110Z,60.64
2019-03-11T05:02:15.319Z,60.56
2019-03-11T05:04:46.529Z,62.17
2019-03-11T05:07:17.754Z,61.44
2019-03-11T05:09:49.390Z,61.63
2019-03-11T05:12:20.687Z,61.29
2019-03-11T05:14:51.919Z,61.86
2019-03-11T05:17:23.174Z,62.65
2019-03-11T05:19:54.311Z,62.54
2019-03-11T05:22:25.552Z,62.99
2019-03-11T05:24:57.811Z,63.48
2019-03-11T05:27:29.815Z,64.43
2019-03-11T05:30:01.019Z,62.73
2019-03-11T05:32:32.271Z,63.25
2019-03-11T05:35:04.151Z,62.98
2019-03-11T05:37:35.536Z,62.03
2019-03-11T05:40:10.835Z,62.74
2019-03-11T05:42:42.121Z,61.92
2019-03-11T05:45:16.559Z,63.18
2019-03-11T05:47:47.728Z,63.24
2019-03-11T05:50:19.386Z,63.22
2019-03-11T05:52:50.634Z,62.90
2019-03-11T05:55:21.895Z,63.63
2019-03-11T05:57:53.116Z,63.29
2019-03-11T06:00:28.764Z,63.70
2019-03-11T06:03:00.328Z,63.42
2019-03-11T06:05:32.594Z,63.60
2019-03-11T06:08:03.826Z,63.99
2019-03-11T06:10:35.150Z,64.45
2019-03-11T06:13:06.491Z,64.01
2019-03-11T06:15:37.809Z,64.70
2019-03-11T06:18:09.091Z,64.48
2019-03-11T06:20:54.013Z,63.42
2019-03-11T06:23:25.262Z,64.04
2019-03-11T06:25:56.538Z,63.78
2019-03-11T06:28:27.968Z,64.23
2019-03-11T06:30:59.185Z,64.10
2019-03-11T06:33:30.454Z,63.40
2019-03-11T06:36:01.845Z,63.56
2019-03-11T06:38:33.126Z,64.56
2019-03-11T06:41:04.371Z,63.77
2019-03-11T06:43:35.877Z,60.49
2019-03-11T06:46:07.205Z,59.39
2019-03-11T06:48:38.437Z,56.36
2019-03-11T06:51:09.683Z,57.11
2019-03-11T06:53:40.977Z,55.15
2019-03-11T06:56:12.158Z,57.87
2019-03-11T06:58:43.411Z,59.11
2019-03-11T07:01:14.976Z,59.69
2019-03-11T07:03:47.285Z,59.21
2019-03-11T07:06:18.441Z,59.59
2019-03-11T07:08:49.785Z,56.84
2019-03-11T07:11:21.045Z,57.26
2019-03-11T07:13:52.317Z,55.54
2019-03-11T07:16:23.538Z,56.17
2019-03-11T07:18:54.885Z,56.85
2019-03-11T07:21:26.233Z,55.96
2019-03-11T07:23:57.581Z,55.70
2019-03-11T07:26:28.783Z,55.69
2019-03-11T07:29:00.261Z,55.86
2019-03-11T07:31:31.443Z,56.22
2019-03-11T07:34:02.679Z,56.32
2019-03-11T07:36:34.132Z,57.59
2019-03-11T07:39:06.184Z,55.93
2019-03-11T07:41:38.449Z,56.60
2019-03-11T07:44:09.802Z,57.44
2019-03-11T07:46:40.976Z,58.33
2019-03-11T07:49:12.202Z,57.55
2019-03-11T07:51:43.407Z,58.24
2019-03-11T07:54:14.626Z,57.39
2019-03-11T07:56:45.895Z,57.04
2019-03-11T07:59:17.244Z,58.16
2019-03-11T08:01:49.469Z,57.96
2019-03-11T08:04:20.734Z,57.36
2019-03-11T08:06:52.063Z,58.45
2019-03-11T08:09:23.349Z,57.20
2019-03-11T08:11:54.705Z,57.87
2019-03-11T08:14:26.016Z,58.43
2019-03-11T08:16:57.199Z,58.66
2019-03-11T08:19:28.460Z,60.05
2019-03-11T08:21:59.711Z,59.90
2019-03-11T08:24:31.075Z,60.79
2019-03-11T08:27:02.451Z,60.81
2019-03-11T08:29:34.136Z,60.97
2019-03-11T08:32:05.474Z,61.25
2019-03-11T08:34:39.087Z,60.87
2019-03-11T08:37:10.738Z,60.65
2019-03-11T08:39:42.626Z,59.93
2019-03-11T08:42:14.080Z,59.23
2019-03-11T08:44:45.289Z,59.75
2019-03-11T08:47:16.556Z,58.92
2019-03-11T08:49:47.798Z,58.75
2019-03-11T08:52:19.034Z,59.73
2019-03-11T08:54:50.270Z,58.59
2019-03-11T08:57:21.653Z,58.90
2019-03-11T08:59:52.910Z,57.77
2019-03-11T09:02:24.353Z,56.69
2019-03-11T09:04:55.647Z,56.82
2019-03-11T09:07:26.969Z,59.70
2019-03-11T09:09:58.386Z,58.75
2019-03-11T09:12:29.665Z,59.53
2019-03-11T09:15:01.143Z,61.09
2019-03-11T09:17:32.645Z,60.19
2019-03-11T09:20:04.625Z,60.59
2019-03-11T09:22:36.026Z,61.84
2019-03-11T09:25:12.969Z,62.59
2019-03-11T09:27:44.319Z,63.76
2019-03-11T09:30:18.305Z,65.01
2019-03-11T09:32:51.096Z,66.37
2019-03-11T09:35:21.852Z,66.62
2019-03-11T09:37:53.346Z,66.52
2019-03-11T09:40:24.866Z,66.98
2019-03-11T09:42:56.981Z,67.07
2019-03-11T09:45:28.220Z,66.00
2019-03-11T09:47:59.549Z,65.79
2019-03-11T09:50:30.899Z,64.93
2019-03-11T09:53:02.148Z,65.96
2019-03-11T09:55:33.437Z,64.82
2019-03-11T09:58:04.733Z,64.43
2019-03-11T10:00:37.383Z,63.18
2019-03-11T10:03:08.824Z,62.56
2019-03-11T10:05:41.656Z,62.68
2019-03-11T10:08:12.939Z,61.96
2019-03-11T10:10:44.141Z,63.18
2019-03-11T10:13:15.627Z,63.12
2019-03-11T10:15:46.934Z,62.78
2019-03-11T10:18:18.912Z,64.13
2019-03-11T10:20:51.299Z,63.81
2019-03-11T10:23:31.815Z,63.77
2019-03-11T10:25:55.068Z,63.43
2019-03-11T10:28:26.162Z,62.61
2019-03-11T10:30:57.466Z,62.58
2019-03-11T10:33:28.927Z,63.83
2019-03-11T10:36:00.316Z,64.04
2019-03-11T10:38:32.699Z,64.14
2019-03-11T10:41:03.774Z,62.84
2019-03-11T10:43:34.859Z,62.40
2019-03-11T10:46:06.202Z,63.45
2019-03-11T10:48:37.708Z,63.09
2019-03-11T10:51:09.084Z,62.68
2019-03-11T10:53:40.310Z,63.08
2019-03-11T10:56:11.590Z,61.72
2019-03-11T10:58:43.082Z,62.31
2019-03-11T11:01:14.304Z,61.46
2019-03-11T11:03:45.770Z,61.84
2019-03-11T11:06:17.434Z,62.20
2019-03-11T11:08:48.849Z,61.21
2019-03-11T11:11:20.219Z,61.65
2019-03-11T11:13:51.477Z,61.02
2019-03-11T11:16:23.089Z,59.32
2019-03-11T11:18:54.845Z,59.84
2019-03-11T11:21:26.143Z,59.90
2019-03-11T11:23:57.527Z,60.03
2019-03-11T11:26:28.871Z,60.23
2019-03-11T11:29:00.292Z,60.79
2019-03-11T11:31:31.660Z,61.44
2019-03-11T11:34:03.265Z,61.39
2019-03-11T11:36:34.609Z,61.65
2019-03-11T11:39:07.479Z,62.23
2019-03-11T11:41:39.048Z,60.89
2019-03-11T11:44:10.473Z,59.48
2019-03-11T11:46:41.934Z,59.85
2019-03-11T11:49:13.322Z,60.16
2019-03-11T11:51:44.612Z,59.88
2019-03-11T11:54:16.036Z,59.27
2019-03-11T11:56:47.744Z,57.97
2019-03-11T11:59:21.584Z,58.47
2019-03-11T12:02:03.724Z,58.60
2019-03-11T12:04:29.986Z,59.97
2019-03-11T12:07:01.171Z,61.22
2019-03-11T12:09:33.430Z,60.53
2019-03-11T12:12:06.141Z,60.20
2019-03-11T12:14:37.902Z,60.75
2019-03-11T12:17:09.403Z,60.46
2019-03-11T12:19:40.859Z,60.19
2019-03-11T12:22:12.078Z,59.70
2019-03-11T12:24:43.435Z,59.19
2019-03-11T12:27:14.865Z,57.59
2019-03-11T12:29:46.211Z,57.10
2019-03-11T12:32:17.397Z,57.12
2019-03-11T12:34:48.643Z,57.62
2019-03-11T12:37:19.971Z,57.13
2019-03-11T12:39:51.328Z,55.96
2019-03-11T12:42:24.118Z,55.17
2019-03-11T12:44:55.872Z,53.60
2019-03-11T12:47:27.495Z,52.21
2019-03-11T12:49:58.802Z,50.83
2019-03-11T12:52:30.083Z,50.38
2019-03-11T12:55:01.554Z,50.51
2019-03-11T12:57:33.520Z,51.46
2019-03-11T13:00:08.331Z,52.28
2019-03-11T13:02:40.008Z,53.26
2019-03-11T13:05:11.878Z,52.92
2019-03-11T13:07:43.524Z,53.70
2019-03-11T13:10:23.052Z,55.62
2019-03-11T13:12:54.759Z,58.34
2019-03-11T13:15:26.477Z,58.38
2019-03-11T13:18:17.797Z,58.39
2019-03-11T13:20:49.576Z,57.91
2019-03-11T13:23:21.226Z,56.46
2019-03-11T13:25:52.972Z,55.90
2019-03-11T13:28:24.518Z,55.49
2019-03-11T13:30:56.276Z,54.98
2019-03-11T13:33:27.844Z,54.67
2019-03-11T13:35:59.599Z,52.65
2019-03-11T13:38:34.375Z,50.57
2019-03-11T13:41:04.951Z,50.10
2019-03-11T13:43:36.611Z,47.41
2019-03-11T13:46:08.369Z,48.21
2019-03-11T13:48:39.672Z,48.15
2019-03-11T13:51:11.163Z,48.74
2019-03-11T13:53:42.817Z,49.66
2019-03-11T13:56:15.488Z,50.15
2019-03-11T13:58:47.155Z,50.17
2019-03-11T14:01:21.300Z,51.07
2019-03-11T14:03:51.089Z,50.96
2019-03-11T14:06:22.537Z,52.08
2019-03-11T14:08:54.086Z,52.22
2019-03-11T14:11:26.085Z,52.06
2019-03-11T14:13:57.407Z,52.18
2019-03-11T14:16:29.069Z,52.71
2019-03-11T14:19:01.643Z,52.91
2019-03-11T14:21:33.889Z,52.94
2019-03-11T14:24:05.680Z,53.66
2019-03-11T14:26:37.307Z,53.27
2019-03-11T14:29:09.654Z,53.80
2019-03-11T14:31:41.896Z,53.49
2019-03-11T14:34:13.614Z,53.67
2019-03-11T14:36:45.171Z,53.67
2019-03-11T14:39:17.635Z,53.52
2019-03-11T14:41:49.286Z,54.84
2019-03-11T14:44:21.154Z,55.67
2019-03-11T14:46:52.690Z,56.26
2019-03-11T14:49:23.966Z,56.43
2019-03-11T14:51:55.378Z,57.22
2019-03-11T14:54:26.722Z,57.70
2019-03-11T14:56:58.097Z,56.65
2019-03-11T14:59:29.860Z,56.83
2019-03-11T15:02:01.324Z,56.86
2019-03-11T15:04:32.875Z,56.79
2019-03-11T15:07:04.216Z,55.68
2019-03-11T15:09:35.746Z,55.30
2019-03-11T15:12:07.314Z,54.97
2019-03-11T15:14:40.763Z,54.34
2019-03-11T15:17:12.357Z,54.96
2019-03-11T15:19:43.825Z,54.30
2019-03-11T15:22:15.055Z,53.80
2019-03-11T15:24:46.392Z,53.21
2019-03-11T15:27:17.642Z,52.53
2019-03-11T15:29:48.984Z,51.20
2019-03-11T15:32:20.279Z,51.53
2019-03-11T15:34:51.604Z,51.27
2019-03-11T15:37:23.000Z,51.40
2019-03-11T15:39:54.246Z,51.36
2019-03-11T15:42:25.458Z,50.76
2019-03-11T15:44:56.899Z,50.51
2019-03-11T15:47:28.158Z,50.27
2019-03-11T15:49:59.462Z,49.71
2019-03-11T15:52:30.709Z,49.28
2019-03-11T15:55:02.071Z,48.90
2019-03-11T15:57:38.922Z,49.23
2019-03-11T16:00:09.633Z,49.68
2019-03-11T16:02:42.686Z,49.45
2019-03-11T16:05:14.543Z,49.28
2019-03-11T16:07:45.910Z,49.46
2019-03-11T16:10:18.995Z,50.22
2019-03-11T16:12:50.897Z,50.65
2019-03-11T16:15:22.615Z,50.35
2019-03-11T16:17:54.241Z,50.57
2019-03-11T16:20:26.952Z,50.55
2019-03-11T16:22:58.456Z,50.64
2019-03-11T16:25:29.696Z,50.89
2019-03-11T16:28:01.025Z,50.61
2019-03-11T16:30:32.367Z,51.13
2019-03-11T16:33:06.262Z,50.59
2019-03-11T16:35:37.730Z,51.19
2019-03-11T16:38:09.423Z,51.33
2019-03-11T16:40:42.492Z,51.57
2019-03-11T16:43:13.839Z,51.53
2019-03-11T16:45:45.143Z,51.97
2019-03-11T16:48:16.419Z,51.34
2019-03-11T16:50:47.593Z,51.96
2019-03-11T16:53:19.304Z,52.13
2019-03-11T16:55:53.598Z,51.71
2019-03-11T16:58:24.881Z,52.00
2019-03-11T17:01:03.759Z,52.17
2019-03-11T17:03:35.188Z,52.62
2019-03-11T17:06:06.575Z,52.24
2019-03-11T17:08:37.944Z,51.87
2019-03-11T17:11:09.291Z,52.18
2019-03-11T17:13:40.792Z,52.50
2019-03-11T17:16:12.049Z,52.04
2019-03-11T17:18:44.951Z,52.69
2019-03-11T17:21:18.082Z,52.33
2019-03-11T17:23:49.446Z,52.27
2019-03-11T17:26:20.777Z,52.32
2019-03-11T17:28:52.005Z,52.88
2019-03-11T17:31:23.225Z,52.66
2019-03-11T17:33:54.940Z,52.32
2019-03-11T17:36:26.153Z,51.59
2019-03-11T17:38:57.373Z,52.00
2019-03-11T17:41:28.621Z,52.27
2019-03-11T17:43:59.865Z,51.67
2019-03-11T17:46:31.214Z,51.72
2019-03-11T17:49:02.636Z,52.74
2019-03-11T17:51:33.910Z,52.62
2019-03-11T17:54:05.220Z,52.78
2019-03-11T17:56:36.511Z,53.09
2019-03-11T17:59:07.728Z,52.48
2019-03-11T18:01:39.034Z,53.01
2019-03-11T18:04:10.251Z,53.00
2019-03-11T18:06:41.481Z,53.00
2019-03-11T18:09:12.923Z,53.23
2019-03-11T18:11:44.455Z,53.07
2019-03-11T18:14:16.951Z,53.53
2019-03-11T18:16:48.328Z,53.45
2019-03-11T18:19:19.908Z,53.32
2019-03-11T18:21:51.089Z,53.36
2019-03-11T18:24:22.320Z,53.69
2019-03-11T18:26:53.562Z,54.08
2019-03-11T18:29:24.902Z,53.80
2019-03-11T18:32:01.705Z,53.82
2019-03-11T18:34:28.580Z,53.75
2019-03-11T18:36:59.737Z,53.38
2019-03-11T18:39:30.968Z,53.47
2019-03-11T18:42:02.617Z,53.75
2019-03-11T18:44:35.451Z,53.73
2019-03-11T18:47:07.280Z,53.84
2019-03-11T18:49:38.662Z,53.96
2019-03-11T18:52:10.203Z,53.73
2019-03-11T18:54:42.461Z,54.44
2019-03-11T18:57:14.215Z,53.72
2019-03-11T18:59:45.644Z,53.71
2019-03-11T19:02:20.012Z,54.07
2019-03-11T19:04:51.316Z,53.92
2019-03-11T19:07:23.296Z,53.79
2019-03-11T19:09:54.830Z,54.45
2019-03-11T19:12:26.599Z,54.22
2019-03-11T19:14:58.250Z,54.29
2019-03-11T19:17:30.212Z,54.60
2019-03-11T19:20:01.828Z,54.54
2019-03-11T19:22:33.620Z,54.14
2019-03-11T19:25:06.858Z,54.12
2019-03-11T19:27:38.266Z,54.01
2019-03-11T19:30:15.146Z,54.86
2019-03-11T19:32:46.756Z,54.24
2019-03-11T19:35:18.878Z,54.29
2019-03-11T19:37:50.248Z,54.26
2019-03-11T19:40:23.792Z,54.26
2019-03-11T19:42:55.247Z,54.32
2019-03-11T19:45:26.809Z,54.50
2019-03-11T19:47:58.094Z,54.92
2019-03-11T19:50:32.396Z,55.08
2019-03-11T19:53:03.765Z,54.75
2019-03-11T19:55:35.058Z,54.79
2019-03-11T19:58:06.314Z,55.25
2019-03-11T20:00:37.785Z,54.72
2019-03-11T20:03:09.015Z,54.57
2019-03-11T20:05:40.225Z,54.73
2019-03-11T20:08:11.719Z,54.58
2019-03-11T20:10:44.031Z,54.10
2019-03-11T20:13:15.612Z,54.16
2019-03-11T20:15:46.979Z,53.63
2019-03-11T20:18:19.236Z,53.74
2019-03-11T20:20:51.022Z,53.34
2019-03-11T20:23:22.880Z,53.38
2019-03-11T20:25:54.000Z,53.24
2019-03-11T20:28:25.604Z,52.76
2019-03-11T20:30:56.941Z,52.56
2019-03-11T20:33:28.496Z,52.82
2019-03-11T20:35:59.762Z,53.00
2019-03-11T20:38:30.916Z,52.84
2019-03-11T20:41:03.183Z,52.63
2019-03-11T20:43:34.598Z,52.35
2019-03-11T20:46:07.075Z,52.07
2019-03-11T20:48:38.604Z,51.82
2019-03-11T20:51:09.803Z,51.63
2019-03-11T20:53:41.024Z,51.60
2019-03-11T20:56:12.286Z,52.52
2019-03-11T20:58:43.649Z,51.59
2019-03-11T21:01:15.205Z,52.09
2019-03-11T21:03:46.479Z,52.11
2019-03-11T21:06:17.783Z,52.03
2019-03-11T21:08:49.506Z,51.77
2019-03-11T21:11:21.222Z,52.20
2019-03-11T21:13:52.924Z,52.45
2019-03-11T21:16:24.502Z,52.90
2019-03-11T21:18:56.098Z,52.87
2019-03-11T21:21:27.419Z,52.76
2019-03-11T21:24:02.199Z,53.33
2019-03-11T21:26:30.864Z,53.51
2019-03-11T21:29:02.411Z,52.90
2019-03-11T21:31:34.048Z,53.35
2019-03-11T21:34:05.300Z,52.87
2019-03-11T21:36:37.608Z,53.38
2019-03-11T21:39:08.790Z,53.42
2019-03-11T21:41:41.678Z,53.02
2019-03-11T21:44:13.236Z,53.04
2019-03-11T21:46:44.547Z,53.03
2019-03-11T21:49:15.914Z,53.68
2019-03-11T21:51:48.314Z,53.60
2019-03-11T21:54:19.706Z,54.08
2019-03-11T21:56:51.026Z,53.78
2019-03-11T21:59:22.512Z,53.88
2019-03-11T22:01:54.020Z,53.85
2019-03-11T22:04:25.227Z,53.91
2019-03-11T22:06:56.425Z,53.96
2019-03-11T22:09:27.713Z,53.75
2019-03-11T22:11:58.983Z,54.15
2019-03-11T22:14:30.242Z,53.86
2019-03-11T22:17:01.432Z,54.01
2019-03-11T22:19:32.649Z,54.83
2019-03-11T22:22:05.505Z,54.60
2019-03-11T22:24:36.757Z,54.73
2019-03-11T22:27:07.966Z,55.02
2019-03-11T22:29:39.199Z,54.90
2019-03-11T22:32:10.433Z,55.26
2019-03-11T22:34:41.718Z,55.18
2019-03-11T22:37:13.014Z,55.30
2019-03-11T22:39:44.170Z,55.08
2019-03-11T22:42:15.456Z,55.13
2019-03-11T22:44:46.710Z,55.76
2019-03-11T22:47:17.958Z,55.35
2019-03-11T22:49:49.183Z,55.39
2019-03-11T22:52:20.858Z,55.19
2019-03-11T22:54:52.077Z,55.35
2019-03-11T22:57:23.342Z,55.57
2019-03-11T22:59:54.574Z,55.74
2019-03-11T23:02:25.996Z,55.50
2019-03-11T23:04:57.241Z,55.34
2019-03-11T23:07:28.445Z,55.57
2019-03-11T23:09:59.620Z,55.90
2019-03-11T23:12:30.849Z,56.01
2019-03-11T23:15:02.059Z,55.74
2019-03-11T23:17:34.068Z,56.00
2019-03-11T23:20:07.507Z,55.98
2019-03-11T23:22:38.726Z,55.98
2019-03-11T23:25:09.969Z,56.29
2019-03-11T23:27:41.144Z,56.52
2019-03-11T23:30:14.259Z,56.54
2019-03-11T23:32:45.449Z,56.65
2019-03-11T23:35:16.693Z,56.80
2019-03-11T23:37:48.051Z,56.75
2019-03-11T23:40:19.290Z,57.18
2019-03-11T23:42:50.538Z,57.22
2019-03-11T23:45:21.786Z,57.46
2019-03-11T23:47:52.991Z,57.66
2019-03-11T23:50:24.216Z,57.94
2019-03-11T23:52:55.546Z,57.71
2019-03-11T23:55:26.795Z,57.83
2019-03-11T23:57:58.015Z,57.89
